sensor_id;sensor_type;location;lat;lon;timestamp;P1;durP1;ratioP1;P2;durP2;ratioP2
36351;SDS011;22382;44.768;17.206;2022-07-23T00:00:19;5.50;;;4.35;;
36351;SDS011;22382;44.768;17.206;2022-07-23T00:02:47;9.55;;;4.65;;
36351;SDS011;22382;44.768;17.206;2022-07-23T00:05:14;5.45;;;4.30;;
36351;SDS011;22382;44.768;17.206;2022-07-23T00:07:41;8.30;;;4.47;;
36351;SDS011;22382;44.768;17.206;2022-07-23T00:10:09;8.23;;;4.70;;
36351;SDS011;22382;44.768;17.206;2022-07-23T00:12:36;10.00;;;4.78;;
36351;SDS011;22382;44.768;17.206;2022-07-23T00:15:17;6.82;;;4.25;;
36351;SDS011;22382;44.768;17.206;2022-07-23T00:17:44;7.60;;;3.97;;
36351;SDS011;22382;44.768;17.206;2022-07-23T00:20:11;8.85;;;4.50;;
36351;SDS011;22382;44.768;17.206;2022-07-23T00:22:48;8.68;;;5.30;;
36351;SDS011;22382;44.768;17.206;2022-07-23T00:25:17;8.18;;;3.83;;
36351;SDS011;22382;44.768;17.206;2022-07-23T00:27:55;8.05;;;4.55;;
36351;SDS011;22382;44.768;17.206;2022-07-23T00:30:23;8.45;;;4.72;;
36351;SDS011;22382;44.768;17.206;2022-07-23T00:32:55;7.03;;;3.97;;
36351;SDS011;22382;44.768;17.206;2022-07-23T00:35:24;7.47;;;3.90;;
36351;SDS011;22382;44.768;17.206;2022-07-23T00:37:52;6.68;;;4.20;;
36351;SDS011;22382;44.768;17.206;2022-07-23T00:40:20;9.43;;;5.05;;
36351;SDS011;22382;44.768;17.206;2022-07-23T00:42:47;6.50;;;4.85;;
36351;SDS011;22382;44.768;17.206;2022-07-23T00:45:14;6.93;;;4.53;;
36351;SDS011;22382;44.768;17.206;2022-07-23T00:47:42;11.73;;;7.82;;
36351;SDS011;22382;44.768;17.206;2022-07-23T00:50:09;8.43;;;6.55;;
36351;SDS011;22382;44.768;17.206;2022-07-23T00:52:37;8.52;;;5.03;;
36351;SDS011;22382;44.768;17.206;2022-07-23T00:55:05;7.05;;;4.50;;
36351;SDS011;22382;44.768;17.206;2022-07-23T00:57:33;7.30;;;4.40;;
36351;SDS011;22382;44.768;17.206;2022-07-23T01:00:01;6.53;;;4.30;;
36351;SDS011;22382;44.768;17.206;2022-07-23T01:02:28;7.57;;;4.55;;
36351;SDS011;22382;44.768;17.206;2022-07-23T01:04:55;11.60;;;4.38;;
36351;SDS011;22382;44.768;17.206;2022-07-23T01:07:22;10.80;;;4.30;;
36351;SDS011;22382;44.768;17.206;2022-07-23T01:09:51;7.18;;;4.25;;
36351;SDS011;22382;44.768;17.206;2022-07-23T01:12:18;6.00;;;4.38;;
36351;SDS011;22382;44.768;17.206;2022-07-23T01:14:45;5.53;;;4.10;;
36351;SDS011;22382;44.768;17.206;2022-07-23T01:17:23;8.88;;;4.15;;
36351;SDS011;22382;44.768;17.206;2022-07-23T01:19:50;10.52;;;4.53;;
36351;SDS011;22382;44.768;17.206;2022-07-23T01:22:18;7.20;;;4.45;;
36351;SDS011;22382;44.768;17.206;2022-07-23T01:24:47;5.03;;;3.95;;
36351;SDS011;22382;44.768;17.206;2022-07-23T01:27:14;6.63;;;4.68;;
36351;SDS011;22382;44.768;17.206;2022-07-23T01:29:44;7.57;;;4.22;;
36351;SDS011;22382;44.768;17.206;2022-07-23T01:32:11;6.70;;;4.20;;
36351;SDS011;22382;44.768;17.206;2022-07-23T01:34:38;7.00;;;4.20;;
36351;SDS011;22382;44.768;17.206;2022-07-23T01:37:07;7.45;;;4.93;;
36351;SDS011;22382;44.768;17.206;2022-07-23T01:39:34;8.15;;;4.78;;
36351;SDS011;22382;44.768;17.206;2022-07-23T01:42:01;7.18;;;4.40;;
36351;SDS011;22382;44.768;17.206;2022-07-23T01:44:28;10.63;;;4.45;;
36351;SDS011;22382;44.768;17.206;2022-07-23T01:46:56;5.47;;;4.20;;
36351;SDS011;22382;44.768;17.206;2022-07-23T01:49:23;7.93;;;4.93;;
36351;SDS011;22382;44.768;17.206;2022-07-23T01:51:50;7.63;;;4.18;;
36351;SDS011;22382;44.768;17.206;2022-07-23T01:54:29;7.13;;;3.95;;
36351;SDS011;22382;44.768;17.206;2022-07-23T01:56:58;6.03;;;4.10;;
36351;SDS011;22382;44.768;17.206;2022-07-23T01:59:26;6.97;;;4.88;;
36351;SDS011;22382;44.768;17.206;2022-07-23T02:01:54;4.45;;;3.95;;
36351;SDS011;22382;44.768;17.206;2022-07-23T02:04:21;8.98;;;4.00;;
36351;SDS011;22382;44.768;17.206;2022-07-23T02:06:50;10.57;;;4.55;;
36351;SDS011;22382;44.768;17.206;2022-07-23T02:09:18;7.53;;;5.05;;
36351;SDS011;22382;44.768;17.206;2022-07-23T02:11:46;8.25;;;4.57;;
36351;SDS011;22382;44.768;17.206;2022-07-23T02:14:13;6.53;;;4.60;;
36351;SDS011;22382;44.768;17.206;2022-07-23T02:16:40;9.35;;;4.85;;
36351;SDS011;22382;44.768;17.206;2022-07-23T02:19:07;8.27;;;4.45;;
36351;SDS011;22382;44.768;17.206;2022-07-23T02:21:34;5.45;;;4.50;;
36351;SDS011;22382;44.768;17.206;2022-07-23T02:24:02;6.32;;;4.80;;
36351;SDS011;22382;44.768;17.206;2022-07-23T02:26:29;11.07;;;4.95;;
36351;SDS011;22382;44.768;17.206;2022-07-23T02:28:58;7.50;;;4.90;;
36351;SDS011;22382;44.768;17.206;2022-07-23T02:31:26;12.10;;;5.80;;
36351;SDS011;22382;44.768;17.206;2022-07-23T02:33:53;8.23;;;5.80;;
36351;SDS011;22382;44.768;17.206;2022-07-23T02:36:20;8.85;;;5.50;;
36351;SDS011;22382;44.768;17.206;2022-07-23T02:38:48;10.18;;;5.75;;
36351;SDS011;22382;44.768;17.206;2022-07-23T02:41:15;11.80;;;5.80;;
36351;SDS011;22382;44.768;17.206;2022-07-23T02:43:42;9.75;;;5.32;;
36351;SDS011;22382;44.768;17.206;2022-07-23T02:46:09;7.70;;;5.30;;
36351;SDS011;22382;44.768;17.206;2022-07-23T02:48:36;6.78;;;4.97;;
36351;SDS011;22382;44.768;17.206;2022-07-23T02:51:03;7.40;;;5.60;;
36351;SDS011;22382;44.768;17.206;2022-07-23T02:53:35;8.20;;;4.78;;
36351;SDS011;22382;44.768;17.206;2022-07-23T02:56:02;7.25;;;5.43;;
36351;SDS011;22382;44.768;17.206;2022-07-23T02:58:29;5.80;;;4.72;;
36351;SDS011;22382;44.768;17.206;2022-07-23T03:00:56;8.45;;;5.28;;
36351;SDS011;22382;44.768;17.206;2022-07-23T03:03:23;6.90;;;4.53;;
36351;SDS011;22382;44.768;17.206;2022-07-23T03:05:55;10.55;;;5.25;;
36351;SDS011;22382;44.768;17.206;2022-07-23T03:08:22;7.80;;;4.85;;
36351;SDS011;22382;44.768;17.206;2022-07-23T03:10:49;9.82;;;5.22;;
36351;SDS011;22382;44.768;17.206;2022-07-23T03:13:16;8.43;;;5.22;;
36351;SDS011;22382;44.768;17.206;2022-07-23T03:15:43;7.45;;;5.50;;
36351;SDS011;22382;44.768;17.206;2022-07-23T03:18:10;9.27;;;5.90;;
36351;SDS011;22382;44.768;17.206;2022-07-23T03:20:37;10.48;;;6.32;;
36351;SDS011;22382;44.768;17.206;2022-07-23T03:23:04;8.38;;;6.13;;
36351;SDS011;22382;44.768;17.206;2022-07-23T03:25:31;10.80;;;5.88;;
36351;SDS011;22382;44.768;17.206;2022-07-23T03:27:59;11.55;;;5.90;;
36351;SDS011;22382;44.768;17.206;2022-07-23T03:30:26;10.60;;;6.38;;
36351;SDS011;22382;44.768;17.206;2022-07-23T03:32:53;7.35;;;5.53;;
36351;SDS011;22382;44.768;17.206;2022-07-23T03:35:20;9.60;;;6.32;;
36351;SDS011;22382;44.768;17.206;2022-07-23T03:37:47;9.60;;;6.78;;
36351;SDS011;22382;44.768;17.206;2022-07-23T03:40:14;7.80;;;6.43;;
36351;SDS011;22382;44.768;17.206;2022-07-23T03:42:41;12.52;;;6.88;;
36351;SDS011;22382;44.768;17.206;2022-07-23T03:45:08;12.48;;;6.90;;
36351;SDS011;22382;44.768;17.206;2022-07-23T03:47:37;9.48;;;6.93;;
36351;SDS011;22382;44.768;17.206;2022-07-23T03:50:05;10.02;;;7.03;;
36351;SDS011;22382;44.768;17.206;2022-07-23T03:52:34;10.43;;;6.55;;
36351;SDS011;22382;44.768;17.206;2022-07-23T03:55:01;12.75;;;6.65;;
36351;SDS011;22382;44.768;17.206;2022-07-23T03:57:29;11.20;;;6.80;;
36351;SDS011;22382;44.768;17.206;2022-07-23T03:59:56;6.40;;;5.32;;
36351;SDS011;22382;44.768;17.206;2022-07-23T04:02:24;10.23;;;6.25;;
36351;SDS011;22382;44.768;17.206;2022-07-23T04:04:51;8.25;;;6.13;;
36351;SDS011;22382;44.768;17.206;2022-07-23T04:07:18;11.82;;;5.90;;
36351;SDS011;22382;44.768;17.206;2022-07-23T04:09:45;7.88;;;6.07;;
36351;SDS011;22382;44.768;17.206;2022-07-23T04:12:12;11.82;;;6.38;;
36351;SDS011;22382;44.768;17.206;2022-07-23T04:14:39;12.02;;;6.38;;
36351;SDS011;22382;44.768;17.206;2022-07-23T04:17:06;6.50;;;5.72;;
36351;SDS011;22382;44.768;17.206;2022-07-23T04:19:33;8.63;;;5.85;;
36351;SDS011;22382;44.768;17.206;2022-07-23T04:22:02;9.82;;;5.78;;
36351;SDS011;22382;44.768;17.206;2022-07-23T04:24:29;15.95;;;6.50;;
36351;SDS011;22382;44.768;17.206;2022-07-23T04:26:56;11.82;;;5.88;;
36351;SDS011;22382;44.768;17.206;2022-07-23T04:29:24;12.43;;;6.03;;
36351;SDS011;22382;44.768;17.206;2022-07-23T04:31:51;9.13;;;4.95;;
36351;SDS011;22382;44.768;17.206;2022-07-23T04:34:18;10.13;;;5.30;;
36351;SDS011;22382;44.768;17.206;2022-07-23T04:36:45;11.82;;;5.65;;
36351;SDS011;22382;44.768;17.206;2022-07-23T04:39:12;9.32;;;5.82;;
36351;SDS011;22382;44.768;17.206;2022-07-23T04:41:40;8.02;;;4.90;;
36351;SDS011;22382;44.768;17.206;2022-07-23T04:44:07;10.25;;;5.90;;
36351;SDS011;22382;44.768;17.206;2022-07-23T04:46:34;7.32;;;4.85;;
36351;SDS011;22382;44.768;17.206;2022-07-23T04:49:01;6.85;;;4.95;;
36351;SDS011;22382;44.768;17.206;2022-07-23T04:51:29;9.75;;;5.47;;
36351;SDS011;22382;44.768;17.206;2022-07-23T04:53:56;7.45;;;4.55;;
36351;SDS011;22382;44.768;17.206;2022-07-23T04:56:23;8.07;;;5.03;;
36351;SDS011;22382;44.768;17.206;2022-07-23T04:58:49;10.25;;;4.88;;
36351;SDS011;22382;44.768;17.206;2022-07-23T05:01:16;7.32;;;4.45;;
36351;SDS011;22382;44.768;17.206;2022-07-23T05:03:44;10.95;;;5.50;;
36351;SDS011;22382;44.768;17.206;2022-07-23T05:06:11;10.95;;;5.63;;
36351;SDS011;22382;44.768;17.206;2022-07-23T05:08:38;11.70;;;6.25;;
36351;SDS011;22382;44.768;17.206;2022-07-23T05:11:05;8.43;;;5.90;;
36351;SDS011;22382;44.768;17.206;2022-07-23T05:13:32;7.13;;;4.90;;
36351;SDS011;22382;44.768;17.206;2022-07-23T05:15:59;8.40;;;5.93;;
36351;SDS011;22382;44.768;17.206;2022-07-23T05:18:26;7.75;;;5.57;;
36351;SDS011;22382;44.768;17.206;2022-07-23T05:20:53;7.10;;;5.00;;
36351;SDS011;22382;44.768;17.206;2022-07-23T05:23:20;11.00;;;7.18;;
36351;SDS011;22382;44.768;17.206;2022-07-23T05:25:47;10.68;;;6.43;;
36351;SDS011;22382;44.768;17.206;2022-07-23T05:28:14;9.10;;;5.07;;
36351;SDS011;22382;44.768;17.206;2022-07-23T05:30:42;8.90;;;5.07;;
36351;SDS011;22382;44.768;17.206;2022-07-23T05:33:10;11.85;;;5.55;;
36351;SDS011;22382;44.768;17.206;2022-07-23T05:35:37;13.80;;;6.03;;
36351;SDS011;22382;44.768;17.206;2022-07-23T05:38:04;13.02;;;5.00;;
36351;SDS011;22382;44.768;17.206;2022-07-23T05:40:31;12.68;;;6.32;;
36351;SDS011;22382;44.768;17.206;2022-07-23T05:42:59;12.00;;;4.88;;
36351;SDS011;22382;44.768;17.206;2022-07-23T05:45:26;13.43;;;5.53;;
36351;SDS011;22382;44.768;17.206;2022-07-23T05:47:53;18.38;;;5.35;;
36351;SDS011;22382;44.768;17.206;2022-07-23T05:50:20;12.65;;;5.47;;
36351;SDS011;22382;44.768;17.206;2022-07-23T05:52:47;6.45;;;5.40;;
36351;SDS011;22382;44.768;17.206;2022-07-23T05:55:14;12.18;;;6.22;;
36351;SDS011;22382;44.768;17.206;2022-07-23T05:57:41;12.18;;;7.97;;
36351;SDS011;22382;44.768;17.206;2022-07-23T06:00:08;14.73;;;10.32;;
36351;SDS011;22382;44.768;17.206;2022-07-23T06:02:37;12.68;;;7.35;;
36351;SDS011;22382;44.768;17.206;2022-07-23T06:05:05;13.73;;;5.70;;
36351;SDS011;22382;44.768;17.206;2022-07-23T06:07:34;10.38;;;5.10;;
36351;SDS011;22382;44.768;17.206;2022-07-23T06:10:02;9.57;;;5.00;;
36351;SDS011;22382;44.768;17.206;2022-07-23T06:12:30;9.65;;;4.80;;
36351;SDS011;22382;44.768;17.206;2022-07-23T06:14:57;15.02;;;5.28;;
36351;SDS011;22382;44.768;17.206;2022-07-23T06:17:25;10.43;;;4.78;;
36351;SDS011;22382;44.768;17.206;2022-07-23T06:19:52;6.15;;;4.90;;
36351;SDS011;22382;44.768;17.206;2022-07-23T06:22:20;10.23;;;5.38;;
36351;SDS011;22382;44.768;17.206;2022-07-23T06:24:47;8.13;;;5.20;;
36351;SDS011;22382;44.768;17.206;2022-07-23T06:27:15;13.10;;;6.28;;
36351;SDS011;22382;44.768;17.206;2022-07-23T06:29:46;7.47;;;5.07;;
36351;SDS011;22382;44.768;17.206;2022-07-23T06:32:13;7.78;;;5.78;;
36351;SDS011;22382;44.768;17.206;2022-07-23T06:34:41;11.35;;;6.07;;
36351;SDS011;22382;44.768;17.206;2022-07-23T06:37:13;8.98;;;5.78;;
36351;SDS011;22382;44.768;17.206;2022-07-23T06:39:40;11.18;;;5.53;;
36351;SDS011;22382;44.768;17.206;2022-07-23T06:42:08;8.48;;;5.28;;
36351;SDS011;22382;44.768;17.206;2022-07-23T06:44:36;8.10;;;5.75;;
36351;SDS011;22382;44.768;17.206;2022-07-23T06:47:03;15.80;;;5.90;;
36351;SDS011;22382;44.768;17.206;2022-07-23T06:49:30;17.75;;;6.20;;
36351;SDS011;22382;44.768;17.206;2022-07-23T06:51:57;10.32;;;5.82;;
36351;SDS011;22382;44.768;17.206;2022-07-23T06:54:24;11.88;;;5.20;;
36351;SDS011;22382;44.768;17.206;2022-07-23T06:56:51;9.77;;;5.10;;
36351;SDS011;22382;44.768;17.206;2022-07-23T06:59:18;11.55;;;5.22;;
36351;SDS011;22382;44.768;17.206;2022-07-23T07:01:45;9.45;;;5.43;;
36351;SDS011;22382;44.768;17.206;2022-07-23T07:04:12;17.00;;;5.28;;
36351;SDS011;22382;44.768;17.206;2022-07-23T07:06:39;6.95;;;4.85;;
36351;SDS011;22382;44.768;17.206;2022-07-23T07:09:07;9.75;;;5.10;;
36351;SDS011;22382;44.768;17.206;2022-07-23T07:11:34;9.75;;;4.90;;
36351;SDS011;22382;44.768;17.206;2022-07-23T07:14:01;13.57;;;5.30;;
36351;SDS011;22382;44.768;17.206;2022-07-23T07:16:28;11.70;;;5.00;;
36351;SDS011;22382;44.768;17.206;2022-07-23T07:18:58;13.10;;;5.18;;
36351;SDS011;22382;44.768;17.206;2022-07-23T07:21:25;10.15;;;5.32;;
36351;SDS011;22382;44.768;17.206;2022-07-23T07:23:52;8.65;;;5.38;;
36351;SDS011;22382;44.768;17.206;2022-07-23T07:26:19;9.02;;;4.72;;
36351;SDS011;22382;44.768;17.206;2022-07-23T07:28:46;10.60;;;4.90;;
36351;SDS011;22382;44.768;17.206;2022-07-23T07:31:14;8.77;;;5.25;;
36351;SDS011;22382;44.768;17.206;2022-07-23T07:33:41;10.38;;;4.93;;
36351;SDS011;22382;44.768;17.206;2022-07-23T07:36:08;8.70;;;5.10;;
36351;SDS011;22382;44.768;17.206;2022-07-23T07:38:35;6.43;;;4.50;;
36351;SDS011;22382;44.768;17.206;2022-07-23T07:41:02;9.93;;;5.20;;
36351;SDS011;22382;44.768;17.206;2022-07-23T07:43:29;7.47;;;5.25;;
36351;SDS011;22382;44.768;17.206;2022-07-23T07:45:56;9.35;;;4.82;;
36351;SDS011;22382;44.768;17.206;2022-07-23T07:48:23;9.95;;;4.78;;
36351;SDS011;22382;44.768;17.206;2022-07-23T07:50:50;9.63;;;4.70;;
36351;SDS011;22382;44.768;17.206;2022-07-23T07:53:17;7.75;;;5.10;;
36351;SDS011;22382;44.768;17.206;2022-07-23T07:55:45;11.32;;;4.78;;
36351;SDS011;22382;44.768;17.206;2022-07-23T07:58:17;8.73;;;4.75;;
36351;SDS011;22382;44.768;17.206;2022-07-23T08:00:44;8.73;;;5.00;;
36351;SDS011;22382;44.768;17.206;2022-07-23T08:03:11;14.18;;;4.80;;
36351;SDS011;22382;44.768;17.206;2022-07-23T08:05:39;9.68;;;5.10;;
36351;SDS011;22382;44.768;17.206;2022-07-23T08:08:06;8.15;;;5.15;;
36351;SDS011;22382;44.768;17.206;2022-07-23T08:10:35;6.57;;;4.53;;
36351;SDS011;22382;44.768;17.206;2022-07-23T08:13:03;14.77;;;5.32;;
36351;SDS011;22382;44.768;17.206;2022-07-23T08:15:30;12.70;;;5.03;;
36351;SDS011;22382;44.768;17.206;2022-07-23T08:17:58;10.90;;;5.05;;
36351;SDS011;22382;44.768;17.206;2022-07-23T08:20:26;11.25;;;4.97;;
36351;SDS011;22382;44.768;17.206;2022-07-23T08:25:22;6.13;;;4.30;;
36351;SDS011;22382;44.768;17.206;2022-07-23T08:27:49;7.30;;;4.65;;
36351;SDS011;22382;44.768;17.206;2022-07-23T08:30:17;8.85;;;5.55;;
36351;SDS011;22382;44.768;17.206;2022-07-23T08:35:16;10.82;;;4.60;;
36351;SDS011;22382;44.768;17.206;2022-07-23T08:37:44;9.05;;;4.90;;
36351;SDS011;22382;44.768;17.206;2022-07-23T08:40:11;11.05;;;4.28;;
36351;SDS011;22382;44.768;17.206;2022-07-23T08:42:39;8.80;;;4.40;;
36351;SDS011;22382;44.768;17.206;2022-07-23T08:45:07;8.18;;;4.18;;
36351;SDS011;22382;44.768;17.206;2022-07-23T08:47:36;7.65;;;4.53;;
36351;SDS011;22382;44.768;17.206;2022-07-23T08:50:04;8.88;;;4.82;;
36351;SDS011;22382;44.768;17.206;2022-07-23T08:52:33;9.13;;;5.03;;
36351;SDS011;22382;44.768;17.206;2022-07-23T08:55:02;10.73;;;4.25;;
36351;SDS011;22382;44.768;17.206;2022-07-23T08:57:30;8.88;;;4.70;;
36351;SDS011;22382;44.768;17.206;2022-07-23T08:59:57;6.82;;;4.93;;
36351;SDS011;22382;44.768;17.206;2022-07-23T09:02:24;8.32;;;4.72;;
36351;SDS011;22382;44.768;17.206;2022-07-23T09:04:51;9.30;;;4.70;;
36351;SDS011;22382;44.768;17.206;2022-07-23T09:07:18;9.55;;;4.75;;
36351;SDS011;22382;44.768;17.206;2022-07-23T09:09:45;5.97;;;4.38;;
36351;SDS011;22382;44.768;17.206;2022-07-23T09:12:12;9.00;;;4.50;;
36351;SDS011;22382;44.768;17.206;2022-07-23T09:14:42;7.55;;;4.82;;
36351;SDS011;22382;44.768;17.206;2022-07-23T09:17:11;8.68;;;4.90;;
36351;SDS011;22382;44.768;17.206;2022-07-23T09:19:40;7.43;;;4.78;;
36351;SDS011;22382;44.768;17.206;2022-07-23T09:25:04;6.65;;;4.95;;
36351;SDS011;22382;44.768;17.206;2022-07-23T09:27:46;11.02;;;4.97;;
36351;SDS011;22382;44.768;17.206;2022-07-23T09:30:27;7.93;;;4.78;;
36351;SDS011;22382;44.768;17.206;2022-07-23T09:35:51;9.02;;;4.50;;
36351;SDS011;22382;44.768;17.206;2022-07-23T09:41:04;7.32;;;4.38;;
36351;SDS011;22382;44.768;17.206;2022-07-23T09:43:35;7.93;;;4.68;;
36351;SDS011;22382;44.768;17.206;2022-07-23T09:46:21;7.35;;;4.80;;
36351;SDS011;22382;44.768;17.206;2022-07-23T09:48:53;6.40;;;5.00;;
36351;SDS011;22382;44.768;17.206;2022-07-23T09:51:23;9.65;;;5.10;;
36351;SDS011;22382;44.768;17.206;2022-07-23T09:54:04;10.50;;;5.30;;
36351;SDS011;22382;44.768;17.206;2022-07-23T09:56:31;6.50;;;4.95;;
36351;SDS011;22382;44.768;17.206;2022-07-23T09:59:01;7.82;;;4.80;;
36351;SDS011;22382;44.768;17.206;2022-07-23T10:01:38;7.00;;;4.93;;
36351;SDS011;22382;44.768;17.206;2022-07-23T10:04:05;11.75;;;4.95;;
36351;SDS011;22382;44.768;17.206;2022-07-23T10:06:33;10.20;;;5.07;;
36351;SDS011;22382;44.768;17.206;2022-07-23T10:09:02;8.35;;;5.15;;
36351;SDS011;22382;44.768;17.206;2022-07-23T10:11:29;10.73;;;5.03;;
36351;SDS011;22382;44.768;17.206;2022-07-23T10:13:58;5.75;;;4.43;;
36351;SDS011;22382;44.768;17.206;2022-07-23T10:16:26;11.02;;;4.97;;
36351;SDS011;22382;44.768;17.206;2022-07-23T10:18:54;9.73;;;5.10;;
36351;SDS011;22382;44.768;17.206;2022-07-23T10:21:24;10.60;;;5.28;;
36351;SDS011;22382;44.768;17.206;2022-07-23T10:24:10;7.60;;;5.13;;
36351;SDS011;22382;44.768;17.206;2022-07-23T10:29:42;13.55;;;5.50;;
36351;SDS011;22382;44.768;17.206;2022-07-23T10:37:44;9.95;;;5.90;;
36351;SDS011;22382;44.768;17.206;2022-07-23T10:40:16;8.57;;;4.63;;
36351;SDS011;22382;44.768;17.206;2022-07-23T10:42:44;7.32;;;5.10;;
36351;SDS011;22382;44.768;17.206;2022-07-23T10:47:50;10.73;;;5.45;;
36351;SDS011;22382;44.768;17.206;2022-07-23T10:58:03;7.47;;;4.65;;
36351;SDS011;22382;44.768;17.206;2022-07-23T11:00:32;7.43;;;4.50;;
36351;SDS011;22382;44.768;17.206;2022-07-23T11:03:01;5.80;;;4.28;;
36351;SDS011;22382;44.768;17.206;2022-07-23T11:05:51;9.05;;;4.78;;
36351;SDS011;22382;44.768;17.206;2022-07-23T11:08:19;8.35;;;4.40;;
36351;SDS011;22382;44.768;17.206;2022-07-23T11:10:53;10.25;;;4.40;;
36351;SDS011;22382;44.768;17.206;2022-07-23T11:13:40;9.77;;;4.60;;
36351;SDS011;22382;44.768;17.206;2022-07-23T11:16:15;5.93;;;4.18;;
36351;SDS011;22382;44.768;17.206;2022-07-23T11:32:01;9.88;;;4.43;;
36351;SDS011;22382;44.768;17.206;2022-07-23T11:34:33;7.75;;;4.47;;
36351;SDS011;22382;44.768;17.206;2022-07-23T11:37:01;7.75;;;4.05;;
36351;SDS011;22382;44.768;17.206;2022-07-23T11:39:29;12.65;;;4.57;;
36351;SDS011;22382;44.768;17.206;2022-07-23T11:41:57;6.07;;;4.15;;
36351;SDS011;22382;44.768;17.206;2022-07-23T11:44:26;7.85;;;3.80;;
36351;SDS011;22382;44.768;17.206;2022-07-23T11:46:57;5.65;;;3.90;;
36351;SDS011;22382;44.768;17.206;2022-07-23T11:49:25;7.40;;;4.10;;
36351;SDS011;22382;44.768;17.206;2022-07-23T11:55:00;7.55;;;3.83;;
36351;SDS011;22382;44.768;17.206;2022-07-23T11:57:32;8.90;;;4.13;;
36351;SDS011;22382;44.768;17.206;2022-07-23T12:00:08;6.47;;;4.10;;
36351;SDS011;22382;44.768;17.206;2022-07-23T12:03:06;6.25;;;4.05;;
36351;SDS011;22382;44.768;17.206;2022-07-23T12:05:34;4.35;;;3.85;;
36351;SDS011;22382;44.768;17.206;2022-07-23T12:08:04;4.47;;;3.90;;
36351;SDS011;22382;44.768;17.206;2022-07-23T12:10:39;8.10;;;4.28;;
36351;SDS011;22382;44.768;17.206;2022-07-23T12:13:09;5.78;;;3.90;;
36351;SDS011;22382;44.768;17.206;2022-07-23T12:15:42;7.22;;;3.88;;
36351;SDS011;22382;44.768;17.206;2022-07-23T12:18:12;8.07;;;4.20;;
36351;SDS011;22382;44.768;17.206;2022-07-23T12:20:50;9.57;;;4.25;;
36351;SDS011;22382;44.768;17.206;2022-07-23T12:23:19;6.05;;;3.90;;
36351;SDS011;22382;44.768;17.206;2022-07-23T12:25:47;7.47;;;4.00;;
36351;SDS011;22382;44.768;17.206;2022-07-23T12:28:21;8.00;;;4.30;;
36351;SDS011;22382;44.768;17.206;2022-07-23T12:30:56;4.75;;;3.50;;
36351;SDS011;22382;44.768;17.206;2022-07-23T12:33:25;6.55;;;3.72;;
36351;SDS011;22382;44.768;17.206;2022-07-23T12:35:57;8.77;;;3.80;;
36351;SDS011;22382;44.768;17.206;2022-07-23T12:38:27;6.80;;;3.92;;
36351;SDS011;22382;44.768;17.206;2022-07-23T12:41:02;4.65;;;3.80;;
36351;SDS011;22382;44.768;17.206;2022-07-23T12:43:31;7.28;;;4.05;;
36351;SDS011;22382;44.768;17.206;2022-07-23T12:46:04;7.68;;;3.53;;
36351;SDS011;22382;44.768;17.206;2022-07-23T12:51:22;6.45;;;3.55;;
36351;SDS011;22382;44.768;17.206;2022-07-23T12:53:55;6.47;;;3.80;;
36351;SDS011;22382;44.768;17.206;2022-07-23T12:56:32;4.85;;;4.05;;
36351;SDS011;22382;44.768;17.206;2022-07-23T13:04:00;6.63;;;3.97;;
36351;SDS011;22382;44.768;17.206;2022-07-23T13:06:34;7.70;;;4.03;;
36351;SDS011;22382;44.768;17.206;2022-07-23T13:09:06;5.13;;;3.70;;
36351;SDS011;22382;44.768;17.206;2022-07-23T13:11:34;5.72;;;3.75;;
36351;SDS011;22382;44.768;17.206;2022-07-23T13:14:02;6.05;;;4.32;;
36351;SDS011;22382;44.768;17.206;2022-07-23T13:16:32;4.93;;;3.85;;
36351;SDS011;22382;44.768;17.206;2022-07-23T13:19:00;6.78;;;3.60;;
36351;SDS011;22382;44.768;17.206;2022-07-23T13:21:28;5.82;;;3.80;;
36351;SDS011;22382;44.768;17.206;2022-07-23T13:23:56;4.95;;;3.60;;
36351;SDS011;22382;44.768;17.206;2022-07-23T13:26:23;4.60;;;3.70;;
36351;SDS011;22382;44.768;17.206;2022-07-23T13:28:51;7.35;;;4.00;;
36351;SDS011;22382;44.768;17.206;2022-07-23T13:31:18;4.82;;;3.78;;
36351;SDS011;22382;44.768;17.206;2022-07-23T13:33:46;4.63;;;3.60;;
36351;SDS011;22382;44.768;17.206;2022-07-23T13:36:14;4.57;;;3.67;;
36351;SDS011;22382;44.768;17.206;2022-07-23T13:38:42;6.82;;;4.20;;
36351;SDS011;22382;44.768;17.206;2022-07-23T13:41:09;5.38;;;3.95;;
36351;SDS011;22382;44.768;17.206;2022-07-23T13:43:37;4.15;;;3.60;;
36351;SDS011;22382;44.768;17.206;2022-07-23T13:46:06;6.40;;;3.53;;
36351;SDS011;22382;44.768;17.206;2022-07-23T13:48:33;5.25;;;3.40;;
36351;SDS011;22382;44.768;17.206;2022-07-23T13:51:00;5.47;;;3.80;;
36351;SDS011;22382;44.768;17.206;2022-07-23T13:53:27;5.32;;;3.65;;
36351;SDS011;22382;44.768;17.206;2022-07-23T13:55:55;6.32;;;3.35;;
36351;SDS011;22382;44.768;17.206;2022-07-23T13:58:22;8.10;;;3.70;;
36351;SDS011;22382;44.768;17.206;2022-07-23T14:00:51;5.88;;;3.90;;
36351;SDS011;22382;44.768;17.206;2022-07-23T14:03:20;3.90;;;3.30;;
36351;SDS011;22382;44.768;17.206;2022-07-23T14:05:52;5.43;;;3.80;;
36351;SDS011;22382;44.768;17.206;2022-07-23T14:08:22;5.55;;;3.17;;
36351;SDS011;22382;44.768;17.206;2022-07-23T14:10:49;4.93;;;3.25;;
36351;SDS011;22382;44.768;17.206;2022-07-23T14:13:16;8.38;;;3.40;;
36351;SDS011;22382;44.768;17.206;2022-07-23T14:15:47;3.90;;;3.57;;
36351;SDS011;22382;44.768;17.206;2022-07-23T14:18:15;7.22;;;3.70;;
36351;SDS011;22382;44.768;17.206;2022-07-23T14:20:42;4.28;;;3.60;;
36351;SDS011;22382;44.768;17.206;2022-07-23T14:23:10;5.13;;;3.63;;
36351;SDS011;22382;44.768;17.206;2022-07-23T14:25:39;3.80;;;3.35;;
36351;SDS011;22382;44.768;17.206;2022-07-23T14:28:06;4.70;;;3.25;;
36351;SDS011;22382;44.768;17.206;2022-07-23T14:30:34;3.90;;;3.25;;
36351;SDS011;22382;44.768;17.206;2022-07-23T14:33:01;3.78;;;3.45;;
36351;SDS011;22382;44.768;17.206;2022-07-23T14:35:28;5.18;;;3.30;;
36351;SDS011;22382;44.768;17.206;2022-07-23T14:37:55;3.80;;;3.33;;
36351;SDS011;22382;44.768;17.206;2022-07-23T14:40:23;4.45;;;3.45;;
36351;SDS011;22382;44.768;17.206;2022-07-23T14:42:50;5.10;;;2.88;;
36351;SDS011;22382;44.768;17.206;2022-07-23T14:45:19;7.88;;;3.10;;
36351;SDS011;22382;44.768;17.206;2022-07-23T14:47:46;5.13;;;3.58;;
36351;SDS011;22382;44.768;17.206;2022-07-23T14:50:14;4.18;;;3.00;;
36351;SDS011;22382;44.768;17.206;2022-07-23T14:52:42;7.65;;;3.40;;
36351;SDS011;22382;44.768;17.206;2022-07-23T14:55:09;5.63;;;3.30;;
36351;SDS011;22382;44.768;17.206;2022-07-23T14:57:36;3.60;;;3.20;;
36351;SDS011;22382;44.768;17.206;2022-07-23T15:00:03;3.75;;;3.20;;
36351;SDS011;22382;44.768;17.206;2022-07-23T15:02:34;3.55;;;3.22;;
36351;SDS011;22382;44.768;17.206;2022-07-23T15:05:01;4.55;;;3.17;;
36351;SDS011;22382;44.768;17.206;2022-07-23T15:09:59;6.63;;;2.90;;
36351;SDS011;22382;44.768;17.206;2022-07-23T15:12:28;8.18;;;2.80;;
36351;SDS011;22382;44.768;17.206;2022-07-23T15:14:55;5.55;;;2.95;;
36351;SDS011;22382;44.768;17.206;2022-07-23T15:17:22;3.42;;;2.72;;
36351;SDS011;22382;44.768;17.206;2022-07-23T15:19:52;3.20;;;2.85;;
36351;SDS011;22382;44.768;17.206;2022-07-23T15:22:19;4.82;;;2.58;;
36351;SDS011;22382;44.768;17.206;2022-07-23T15:24:47;4.25;;;2.88;;
36351;SDS011;22382;44.768;17.206;2022-07-23T15:27:14;4.15;;;3.00;;
36351;SDS011;22382;44.768;17.206;2022-07-23T15:29:44;3.55;;;3.08;;
36351;SDS011;22382;44.768;17.206;2022-07-23T15:32:11;3.50;;;2.88;;
36351;SDS011;22382;44.768;17.206;2022-07-23T15:34:39;4.10;;;2.85;;
36351;SDS011;22382;44.768;17.206;2022-07-23T15:37:06;4.35;;;2.63;;